createdAt,value
2022-10-07T00:06:21.023Z,1027.99
2022-10-07T00:35:18.608Z,1027.86
2022-10-07T01:04:15.269Z,1027.58
2022-10-07T01:33:06.857Z,1027.15
2022-10-07T02:02:00.452Z,1026.76
2022-10-07T02:30:56.845Z,1026.54
2022-10-07T02:59:44.918Z,1026.36
2022-10-07T03:28:29.943Z,1026.19
2022-10-07T03:57:18.072Z,1026.04
2022-10-07T04:26:08.396Z,1025.99
2022-10-07T04:55:04.619Z,1025.81
2022-10-07T05:23:59.908Z,1025.69
2022-10-07T05:52:49.775Z,1025.63
2022-10-07T06:21:42.449Z,1025.52
2022-10-07T06:50:19.761Z,1025.54
2022-10-07T07:19:01.616Z,1025.48
2022-10-07T07:47:32.157Z,1025.46
2022-10-07T08:16:32.867Z,1025.39
2022-10-07T08:45:27.345Z,1025.19
2022-10-07T09:13:59.939Z,1024.85
2022-10-07T10:11:39.197Z,1024.19
2022-10-07T10:40:31.275Z,1023.74
2022-10-07T11:09:20.930Z,1023.44
2022-10-07T11:37:47.593Z,1023.04
2022-10-07T12:06:35.371Z,1022.57
2022-10-07T12:35:05.443Z,1022.22
2022-10-07T13:03:34.008Z,1021.76
2022-10-07T13:32:26.471Z,1021.38
2022-10-07T14:01:04.729Z,1020.93
2022-10-07T14:29:43.967Z,1020.55
2022-10-07T14:58:23.627Z,1020.17
2022-10-07T15:26:53.365Z,1019.83
2022-10-07T15:55:24.836Z,1019.61
2022-10-07T16:23:42.864Z,1019.52
2022-10-07T16:52:01.407Z,1019.56
2022-10-07T17:20:38.238Z,1019.65
2022-10-07T17:49:09.117Z,1019.61
2022-10-07T18:18:00.736Z,1019.67
2022-10-07T18:46:41.548Z,1019.72
2022-10-07T19:15:12.234Z,1019.78
2022-10-07T19:43:46.270Z,1019.8
2022-10-07T20:12:25.970Z,1019.88
2022-10-07T20:41:09.022Z,1019.92
2022-10-07T21:09:38.945Z,1019.82
2022-10-07T21:38:32.082Z,1019.7
2022-10-07T22:07:43.242Z,1019.82
2022-10-07T22:36:25.381Z,1019.74
2022-10-07T23:05:02.233Z,1019.6
2022-10-07T23:33:53.918Z,1019.41
